createdAt,value
2023-05-10T00:00:50.587Z,99332.40
2023-05-10T00:03:17.914Z,99323.83
2023-05-10T00:05:44.970Z,99328.66
2023-05-10T00:08:12.076Z,99325.52
2023-05-10T00:10:39.477Z,99320.95
2023-05-10T00:13:06.782Z,99319.94
2023-05-10T00:15:34.098Z,99318.45
2023-05-10T00:18:01.505Z,99318.67
2023-05-10T00:20:28.802Z,99318.94
2023-05-10T00:22:55.909Z,99314.71
2023-05-10T00:25:22.997Z,99317.39
2023-05-10T00:27:50.878Z,99317.04
2023-05-10T00:30:18.253Z,99316.13
2023-05-10T00:32:46.025Z,99313.58
2023-05-10T00:35:13.776Z,99311.57
2023-05-10T00:37:41.747Z,99307.15
2023-05-10T00:40:08.958Z,99310.89
2023-05-10T00:42:36.559Z,99307.25
2023-05-10T00:45:03.886Z,99307.95
2023-05-10T00:47:32.514Z,99309.69
2023-05-10T00:50:01.737Z,99308.13
2023-05-10T00:52:29.576Z,99303.91
2023-05-10T00:54:56.564Z,99308.72
2023-05-10T00:57:24.219Z,99305.40
2023-05-10T00:59:51.556Z,99299.75
2023-05-10T01:02:19.069Z,99300.66
2023-05-10T01:04:46.515Z,99303.71
2023-05-10T01:07:13.755Z,99298.91
2023-05-10T01:09:41.137Z,99301.98
2023-05-10T01:12:08.497Z,99299.55
2023-05-10T01:14:37.362Z,99306.39
2023-05-10T01:17:04.940Z,99300.11
2023-05-10T01:19:32.190Z,99297.39
2023-05-10T01:22:16.224Z,99296.66
2023-05-10T01:24:58.113Z,99295.55
2023-05-10T01:27:40.875Z,99299.79
2023-05-10T01:30:27.252Z,99298.45
2023-05-10T01:33:19.687Z,99301.72
2023-05-10T01:35:59.546Z,99301.35
2023-05-10T01:38:51.395Z,99299.89
2023-05-10T01:41:39.301Z,99293.73
2023-05-10T01:44:11.326Z,99289.54
2023-05-10T01:46:39.449Z,99286.86
2023-05-10T01:49:10.383Z,99286.83
2023-05-10T01:51:44.419Z,99289.25
2023-05-10T01:54:11.897Z,99286.65
2023-05-10T01:56:39.142Z,99283.79
2023-05-10T01:59:08.466Z,99285.54
2023-05-10T02:01:36.007Z,99284.98
2023-05-10T02:04:02.995Z,99286.14
2023-05-10T02:06:30.551Z,99284.00
2023-05-10T02:08:57.601Z,99282.43
2023-05-10T02:11:24.808Z,99280.62
2023-05-10T02:13:52.866Z,99282.96
2023-05-10T02:16:20.063Z,99288.00
2023-05-10T02:18:48.122Z,99290.80
2023-05-10T02:21:15.546Z,99285.67
2023-05-10T02:23:42.788Z,99282.00
2023-05-10T02:26:09.951Z,99277.92
2023-05-10T02:28:37.037Z,99280.53
2023-05-10T02:31:04.527Z,99276.90
2023-05-10T02:33:31.740Z,99279.30
2023-05-10T02:35:58.818Z,99281.80
2023-05-10T02:38:26.375Z,99281.98
2023-05-10T02:40:53.731Z,99280.65
2023-05-10T02:43:20.722Z,99276.09
2023-05-10T02:45:48.457Z,99275.29
2023-05-10T02:48:15.701Z,99276.35
2023-05-10T02:50:45.044Z,99274.74
2023-05-10T02:53:16.486Z,99274.48
2023-05-10T02:55:43.983Z,99276.19
2023-05-10T02:58:11.198Z,99274.98
2023-05-10T03:00:38.581Z,99272.69
2023-05-10T03:03:05.744Z,99272.60
2023-05-10T03:05:34.185Z,99271.63
2023-05-10T03:08:05.115Z,99277.17
2023-05-10T03:10:32.374Z,99276.14
2023-05-10T03:13:22.455Z,99276.05
2023-05-10T03:15:49.909Z,99276.15
2023-05-10T03:18:19.314Z,99276.38
2023-05-10T03:20:51.969Z,99273.09
2023-05-10T03:23:19.052Z,99267.86
2023-05-10T03:25:47.208Z,99268.43
2023-05-10T03:28:14.615Z,99270.27
2023-05-10T03:30:42.614Z,99269.89
2023-05-10T03:33:10.613Z,99270.09
2023-05-10T03:35:40.468Z,99268.95
2023-05-10T03:38:07.495Z,99267.25
2023-05-10T03:40:34.589Z,99267.60
2023-05-10T03:43:01.733Z,99269.69
2023-05-10T03:45:29.077Z,99265.37
2023-05-10T03:47:56.886Z,99264.66
2023-05-10T03:50:25.371Z,99263.74
2023-05-10T03:52:54.093Z,99263.97
2023-05-10T03:55:21.874Z,99261.98
2023-05-10T03:57:50.670Z,99265.44
2023-05-10T04:00:18.299Z,99265.76
2023-05-10T04:02:48.314Z,99263.98
2023-05-10T04:05:19.224Z,99265.83
2023-05-10T04:07:47.401Z,99263.67
2023-05-10T04:10:14.772Z,99267.23
2023-05-10T04:12:42.978Z,99263.39
2023-05-10T04:15:10.783Z,99262.26
2023-05-10T04:17:38.713Z,99263.43
2023-05-10T04:20:06.791Z,99267.60
2023-05-10T04:22:33.790Z,99268.65
2023-05-10T04:25:00.754Z,99266.50
2023-05-10T04:27:28.225Z,99266.39
2023-05-10T04:29:55.409Z,99271.11
2023-05-10T04:32:22.373Z,99264.67
2023-05-10T04:34:49.416Z,99261.54
2023-05-10T04:37:16.452Z,99260.15
2023-05-10T04:39:43.528Z,99262.66
2023-05-10T04:42:10.651Z,99262.73
2023-05-10T04:44:37.697Z,99260.17
2023-05-10T04:47:04.792Z,99263.70
2023-05-10T04:49:32.100Z,99261.23
2023-05-10T04:51:59.109Z,99260.14
2023-05-10T04:54:26.063Z,99263.10
2023-05-10T04:56:53.029Z,99265.30
2023-05-10T04:59:20.162Z,99259.36
2023-05-10T05:01:47.034Z,99253.73
2023-05-10T05:04:14.025Z,99250.40
2023-05-10T05:06:41.261Z,99245.80
2023-05-10T05:09:08.278Z,99251.99
2023-05-10T05:11:35.245Z,99249.61
2023-05-10T05:14:03.134Z,99248.02
2023-05-10T05:16:32.100Z,99248.24
2023-05-10T05:18:59.037Z,99247.99
2023-05-10T05:21:27.935Z,99243.04
2023-05-10T05:23:54.896Z,99243.20
2023-05-10T13:56:55.882Z,99042.48
2023-05-10T13:59:23.577Z,99033.61
2023-05-10T14:01:50.558Z,99035.41
2023-05-10T14:04:17.840Z,99032.00
2023-05-10T14:06:44.734Z,99035.69
2023-05-10T14:09:11.892Z,99030.52
2023-05-10T14:11:42.731Z,99029.41
2023-05-10T14:14:10.078Z,99029.45
2023-05-10T14:16:37.040Z,99025.26
2023-05-10T14:19:04.165Z,99022.48
2023-05-10T14:21:31.824Z,99021.61
2023-05-10T14:23:58.740Z,99026.27
2023-05-10T14:26:26.125Z,99023.44
2023-05-10T14:28:53.390Z,99020.87
2023-05-10T14:31:24.378Z,99021.87
2023-05-10T14:33:51.312Z,99022.84
2023-05-10T14:36:18.688Z,99021.71
2023-05-10T14:38:45.646Z,99018.92
2023-05-10T14:41:15.552Z,99016.98
2023-05-10T14:43:42.506Z,99019.79
2023-05-10T14:46:09.902Z,99016.90
2023-05-10T14:48:37.275Z,99019.05
2023-05-10T14:51:04.762Z,99016.14
2023-05-10T14:53:31.771Z,99011.48
2023-05-10T14:55:58.924Z,99014.35
2023-05-10T14:58:26.068Z,99011.72
2023-05-10T15:00:54.069Z,99014.26
2023-05-10T15:03:22.453Z,99014.13
2023-05-10T15:05:49.859Z,99015.50
2023-05-10T15:08:17.433Z,99012.38
2023-05-10T15:10:44.540Z,99011.95
2023-05-10T15:13:11.705Z,99010.35
2023-05-10T15:15:38.831Z,99009.25
2023-05-10T15:18:06.737Z,99009.23
2023-05-10T15:20:33.755Z,99004.48
2023-05-10T15:23:00.636Z,99003.00
2023-05-10T15:25:28.865Z,99007.02
2023-05-10T15:27:56.137Z,99006.92
2023-05-10T15:30:23.247Z,99003.27
2023-05-10T15:32:50.314Z,99004.70
2023-05-10T15:35:18.223Z,99004.02
2023-05-10T15:37:45.633Z,99005.79
2023-05-10T15:40:12.783Z,99005.41
2023-05-10T15:42:39.944Z,99002.07
2023-05-10T15:45:07.519Z,99004.18
2023-05-10T15:47:34.761Z,99003.72
2023-05-10T15:50:01.809Z,98998.63
2023-05-10T15:52:29.219Z,98999.64
2023-05-10T15:54:56.530Z,98999.11
2023-05-10T15:57:23.527Z,98998.94
2023-05-10T15:59:50.914Z,99000.42
2023-05-10T16:02:19.435Z,98999.70
2023-05-10T16:04:46.515Z,99001.86
2023-05-10T16:07:13.380Z,99000.75
2023-05-10T16:09:40.384Z,98999.06
2023-05-10T16:12:08.355Z,98998.85
2023-05-10T16:14:35.547Z,98996.23
2023-05-10T16:17:04.285Z,98997.30
2023-05-10T16:19:31.789Z,98997.27
2023-05-10T16:21:58.771Z,98996.67
2023-05-10T16:24:26.542Z,98995.44
2023-05-10T16:26:53.430Z,98995.60
2023-05-10T16:29:20.346Z,98995.87
2023-05-10T16:31:47.306Z,98999.06
2023-05-10T16:34:14.264Z,99001.52
2023-05-10T16:36:41.310Z,99001.31
2023-05-10T16:39:09.846Z,99002.10
2023-05-10T16:41:36.806Z,99006.96
2023-05-10T16:44:04.029Z,99008.19
2023-05-10T16:46:31.207Z,99010.45
2023-05-10T16:48:59.854Z,99011.59
2023-05-10T16:51:27.229Z,99011.80
2023-05-10T16:53:55.218Z,99012.66
2023-05-10T16:56:23.443Z,99011.57
2023-05-10T16:58:50.421Z,99011.23
2023-05-10T17:01:17.568Z,99009.98
2023-05-10T17:03:44.700Z,99009.98
2023-05-10T17:06:12.129Z,99013.20
2023-05-10T17:08:39.593Z,99012.89
2023-05-10T17:11:06.574Z,99013.21
2023-05-10T17:13:33.805Z,99015.48
2023-05-10T17:16:03.677Z,99014.88
2023-05-10T17:18:31.031Z,99016.91
2023-05-10T17:20:58.383Z,99015.35
2023-05-10T17:23:25.731Z,99016.33
2023-05-10T17:25:53.003Z,99021.31
2023-05-10T17:28:20.476Z,99021.95
2023-05-10T17:30:47.676Z,99024.71
2023-05-10T17:33:14.621Z,99028.34
2023-05-10T17:35:46.506Z,99027.52
2023-05-10T17:38:13.819Z,99027.25
2023-05-10T17:40:41.518Z,99032.36
2023-05-10T17:43:08.793Z,99034.13
2023-05-10T17:45:36.379Z,99031.09
2023-05-10T17:48:04.279Z,99032.91
2023-05-10T17:50:32.666Z,99036.41
2023-05-10T17:52:59.538Z,99038.11
2023-05-10T17:55:27.210Z,99040.73
2023-05-10T17:57:58.616Z,99041.17
2023-05-10T18:00:25.891Z,99045.70
2023-05-10T18:02:52.868Z,99045.56
2023-05-10T18:05:20.805Z,99053.04
2023-05-10T18:07:48.414Z,99056.46
2023-05-10T18:10:15.506Z,99056.38
2023-05-10T18:12:42.999Z,99059.19
2023-05-10T18:15:10.490Z,99063.57
2023-05-10T18:17:37.910Z,99065.41
2023-05-10T18:20:07.451Z,99070.02
2023-05-10T18:22:34.510Z,99074.22
2023-05-10T18:25:02.232Z,99074.52
2023-05-10T18:27:29.966Z,99079.66
2023-05-10T18:29:57.131Z,99076.59
2023-05-10T18:32:24.580Z,99084.73
2023-05-10T18:34:52.450Z,99085.85
2023-05-10T18:37:21.060Z,99085.09
2023-05-10T18:39:47.949Z,99087.08
2023-05-10T18:42:15.471Z,99094.09
2023-05-10T18:44:42.413Z,99097.11
2023-05-10T18:47:09.375Z,99103.36
2023-05-10T18:49:36.585Z,99101.80
2023-05-10T18:52:03.999Z,99103.10
2023-05-10T18:54:31.350Z,99104.65
2023-05-10T18:56:59.039Z,99107.52
2023-05-10T18:59:27.820Z,99109.47
2023-05-10T19:01:56.999Z,99111.91
2023-05-10T19:04:24.591Z,99112.61
2023-05-10T19:06:51.589Z,99111.40
2023-05-10T19:09:20.251Z,99109.17
2023-05-10T19:11:47.207Z,99108.71
2023-05-10T19:14:14.498Z,99110.18
2023-05-10T19:16:42.750Z,99112.16
2023-05-10T19:19:10.371Z,99118.70
2023-05-10T19:21:39.823Z,99115.38
2023-05-10T19:24:08.768Z,99116.79
2023-05-10T19:26:37.231Z,99119.98
2023-05-10T19:29:04.201Z,99118.50
2023-05-10T19:31:33.472Z,99123.70
2023-05-10T19:34:00.974Z,99126.30
2023-05-10T19:36:28.613Z,99123.65
2023-05-10T19:38:55.694Z,99122.28
2023-05-10T19:41:22.869Z,99123.29
2023-05-10T19:43:50.095Z,99127.31
2023-05-10T19:46:19.289Z,99127.55
2023-05-10T19:48:50.141Z,99124.59
2023-05-10T19:51:17.209Z,99127.01
2023-05-10T19:53:45.080Z,99124.14
2023-05-10T19:56:12.961Z,99123.25
2023-05-10T19:58:40.476Z,99119.48
2023-05-10T20:01:08.118Z,99121.09
2023-05-10T20:03:35.869Z,99122.09
2023-05-10T20:06:03.090Z,99122.98
2023-05-10T20:08:30.104Z,99124.35
2023-05-10T20:11:02.627Z,99120.48
2023-05-10T20:13:30.045Z,99121.63
2023-05-10T20:15:58.191Z,99125.84
2023-05-10T20:18:26.030Z,99124.27
2023-05-10T20:20:59.195Z,99125.21
2023-05-10T20:23:26.694Z,99122.98
2023-05-10T20:25:54.989Z,99120.17
2023-05-10T20:28:23.137Z,99122.89
2023-05-10T20:30:53.873Z,99124.08
2023-05-10T20:33:21.271Z,99123.65
2023-05-10T20:35:48.242Z,99122.13
2023-05-10T20:38:15.161Z,99125.30
2023-05-10T20:40:43.591Z,99124.34
2023-05-10T20:43:10.684Z,99126.71
2023-05-10T20:45:37.952Z,99121.45
2023-05-10T20:48:05.235Z,99126.40
2023-05-10T20:50:32.409Z,99118.84
2023-05-10T20:53:00.966Z,99128.06
2023-05-10T20:55:28.733Z,99128.31
2023-05-10T20:57:55.817Z,99126.38
2023-05-10T21:00:22.817Z,99125.73
2023-05-10T21:02:49.932Z,99126.08
2023-05-10T21:05:18.103Z,99124.70
2023-05-10T21:07:47.386Z,99123.16
2023-05-10T21:10:14.586Z,99122.48
2023-05-10T21:12:42.161Z,99125.65
2023-05-10T21:15:09.465Z,99128.31
2023-05-10T21:17:37.060Z,99132.45
2023-05-10T21:20:04.265Z,99134.84
2023-05-10T21:22:32.091Z,99134.92
2023-05-10T21:24:59.080Z,99131.48
2023-05-10T21:27:26.068Z,99139.14
2023-05-10T21:29:53.683Z,99140.46
2023-05-10T21:32:21.017Z,99139.10
2023-05-10T21:34:48.947Z,99137.75
2023-05-10T21:37:17.503Z,99137.91
2023-05-10T21:39:44.793Z,99130.59
2023-05-10T21:42:11.923Z,99131.11
2023-05-10T21:44:39.337Z,99130.80
2023-05-10T21:47:06.316Z,99129.48
2023-05-10T21:49:34.216Z,99133.48
2023-05-10T21:52:01.735Z,99133.41
2023-05-10T21:54:28.919Z,99132.14
2023-05-10T21:56:55.956Z,99129.83
2023-05-10T21:59:23.451Z,99134.45
2023-05-10T22:01:50.662Z,99134.84
2023-05-10T22:04:17.949Z,99136.42
2023-05-10T22:06:45.198Z,99139.77
2023-05-10T22:09:12.202Z,99135.95
2023-05-10T22:11:39.186Z,99138.23
2023-05-10T22:14:06.337Z,99139.72
2023-05-10T22:16:33.519Z,99138.34
2023-05-10T22:19:00.679Z,99134.08
2023-05-10T22:21:27.896Z,99129.25
2023-05-10T22:23:55.296Z,99129.45
2023-05-10T22:26:22.738Z,99129.85
2023-05-10T22:28:50.099Z,99132.22
2023-05-10T22:31:17.424Z,99132.98
2023-05-10T22:33:44.487Z,99136.38
2023-05-10T22:36:11.755Z,99138.12
2023-05-10T22:38:38.743Z,99137.56
2023-05-10T22:41:06.004Z,99135.55
2023-05-10T22:43:33.633Z,99138.45
2023-05-10T22:46:00.888Z,99136.88
2023-05-10T22:48:28.718Z,99137.02
2023-05-10T22:50:55.915Z,99133.39
2023-05-10T22:53:23.184Z,99133.61
2023-05-10T22:55:50.809Z,99133.48
2023-05-10T22:58:18.011Z,99128.44
2023-05-10T23:00:44.991Z,99131.73
2023-05-10T23:03:11.916Z,99130.52
2023-05-10T23:05:38.991Z,99131.40
2023-05-10T23:08:06.370Z,99134.87
2023-05-10T23:10:33.616Z,99130.04
2023-05-10T23:13:01.174Z,99131.92
2023-05-10T23:15:28.118Z,99130.51
2023-05-10T23:17:55.223Z,99127.27
2023-05-10T23:20:22.271Z,99128.36
2023-05-10T23:22:49.735Z,99130.12
2023-05-10T23:25:17.170Z,99131.35
2023-05-10T23:27:44.228Z,99129.45
2023-05-10T23:30:11.587Z,99132.55
2023-05-10T23:32:39.117Z,99131.72
2023-05-10T23:35:07.028Z,99127.59
2023-05-10T23:37:34.327Z,99126.93
2023-05-10T23:40:02.028Z,99128.45
2023-05-10T23:42:29.299Z,99124.45
2023-05-10T23:44:56.531Z,99125.20
2023-05-10T23:47:23.562Z,99123.14
2023-05-10T23:49:50.680Z,99122.98
2023-05-10T23:52:17.848Z,99121.89
2023-05-10T23:54:45.951Z,99127.85
2023-05-10T23:57:13.041Z,99127.19
2023-05-10T23:59:40.014Z,99126.58
